sensor_id;sensor_type;location;lat;lon;timestamp;pressure;altitude;pressure_sealevel;temperature;humidity
9415;BME280;4746;35.664;139.738;2023-07-31T00:00:47;100185.03;;;36.95;44.50
9415;BME280;4746;35.664;139.738;2023-07-31T00:03:15;100181.94;;;36.90;44.61
9415;BME280;4746;35.664;139.738;2023-07-31T00:05:42;100180.03;;;36.83;44.41
9415;BME280;4746;35.664;139.738;2023-07-31T00:08:10;100182.44;;;36.86;44.32
9415;BME280;4746;35.664;139.738;2023-07-31T00:10:38;100173.72;;;36.84;44.00
9415;BME280;4746;35.664;139.738;2023-07-31T00:13:05;100176.81;;;36.79;44.14
9415;BME280;4746;35.664;139.738;2023-07-31T00:15:33;100184.72;;;36.81;44.89
9415;BME280;4746;35.664;139.738;2023-07-31T00:18:00;100169.06;;;36.86;43.99
9415;BME280;4746;35.664;139.738;2023-07-31T00:20:28;100170.78;;;36.95;43.98
9415;BME280;4746;35.664;139.738;2023-07-31T00:22:55;100171.38;;;37.06;43.68
9415;BME280;4746;35.664;139.738;2023-07-31T00:25:24;100168.88;;;37.05;43.44
9415;BME280;4746;35.664;139.738;2023-07-31T00:27:51;100162.63;;;36.96;43.49
9415;BME280;4746;35.664;139.738;2023-07-31T00:30:19;100158.31;;;37.03;43.10
9415;BME280;4746;35.664;139.738;2023-07-31T00:32:47;100150.03;;;37.14;42.98
9415;BME280;4746;35.664;139.738;2023-07-31T00:35:14;100144.22;;;37.19;42.33
9415;BME280;4746;35.664;139.738;2023-07-31T00:37:42;100135.72;;;37.23;42.41
9415;BME280;4746;35.664;139.738;2023-07-31T00:40:09;100136.13;;;37.28;41.80
9415;BME280;4746;35.664;139.738;2023-07-31T00:42:37;100143.31;;;37.36;41.84
9415;BME280;4746;35.664;139.738;2023-07-31T00:45:05;100135.34;;;37.44;41.55
9415;BME280;4746;35.664;139.738;2023-07-31T00:47:33;100133.03;;;37.49;41.14
9415;BME280;4746;35.664;139.738;2023-07-31T00:50:01;100127.38;;;37.52;41.84
9415;BME280;4746;35.664;139.738;2023-07-31T00:52:28;100133.41;;;37.61;42.12
9415;BME280;4746;35.664;139.738;2023-07-31T00:54:56;100128.25;;;37.68;42.32
9415;BME280;4746;35.664;139.738;2023-07-31T00:57:23;100125.81;;;37.74;42.16
9415;BME280;4746;35.664;139.738;2023-07-31T00:59:51;100113.25;;;37.75;42.76
9415;BME280;4746;35.664;139.738;2023-07-31T01:02:19;100120.13;;;37.77;42.59
9415;BME280;4746;35.664;139.738;2023-07-31T01:04:48;100122.13;;;37.83;42.53
9415;BME280;4746;35.664;139.738;2023-07-31T01:07:31;100128.19;;;37.93;42.75
9415;BME280;4746;35.664;139.738;2023-07-31T01:10:19;100125.88;;;37.98;42.14
9415;BME280;4746;35.664;139.738;2023-07-31T01:12:50;100125.53;;;38.01;42.29
9415;BME280;4746;35.664;139.738;2023-07-31T01:15:18;100123.19;;;38.06;41.73
9415;BME280;4746;35.664;139.738;2023-07-31T01:17:46;100127.56;;;38.15;41.81
9415;BME280;4746;35.664;139.738;2023-07-31T01:20:25;100132.28;;;38.21;41.28
9415;BME280;4746;35.664;139.738;2023-07-31T01:23:35;100132.44;;;38.20;41.65
9415;BME280;4746;35.664;139.738;2023-07-31T01:26:21;100128.72;;;38.05;41.38
9415;BME280;4746;35.664;139.738;2023-07-31T01:31:47;100131.22;;;37.98;41.15
9415;BME280;4746;35.664;139.738;2023-07-31T01:34:17;100137.03;;;37.86;41.69
9415;BME280;4746;35.664;139.738;2023-07-31T01:36:46;100134.69;;;37.83;41.36
9415;BME280;4746;35.664;139.738;2023-07-31T01:39:13;100129.69;;;37.88;41.76
9415;BME280;4746;35.664;139.738;2023-07-31T01:41:43;100127.88;;;37.96;41.69
9415;BME280;4746;35.664;139.738;2023-07-31T01:44:11;100113.66;;;38.04;41.24
9415;BME280;4746;35.664;139.738;2023-07-31T01:46:38;100117.50;;;38.09;40.95
9415;BME280;4746;35.664;139.738;2023-07-31T01:49:08;100115.50;;;38.11;40.68
9415;BME280;4746;35.664;139.738;2023-07-31T01:51:35;100111.81;;;38.12;40.58
9415;BME280;4746;35.664;139.738;2023-07-31T01:54:03;100090.75;;;38.09;40.69
9415;BME280;4746;35.664;139.738;2023-07-31T01:56:30;100127.06;;;38.12;40.29
9415;BME280;4746;35.664;139.738;2023-07-31T01:58:58;100098.09;;;38.07;40.50
9415;BME280;4746;35.664;139.738;2023-07-31T02:01:25;100094.41;;;38.08;40.44
9415;BME280;4746;35.664;139.738;2023-07-31T02:03:53;100096.59;;;38.13;40.39
9415;BME280;4746;35.664;139.738;2023-07-31T02:06:20;100095.75;;;38.12;40.03
9415;BME280;4746;35.664;139.738;2023-07-31T02:08:49;100101.75;;;38.06;39.42
9415;BME280;4746;35.664;139.738;2023-07-31T02:11:16;100096.41;;;37.98;39.72
9415;BME280;4746;35.664;139.738;2023-07-31T02:13:44;100082.19;;;37.98;40.20
9415;BME280;4746;35.664;139.738;2023-07-31T02:16:11;100071.97;;;38.01;39.96
9415;BME280;4746;35.664;139.738;2023-07-31T02:18:43;100071.97;;;38.01;39.22
9415;BME280;4746;35.664;139.738;2023-07-31T02:24:26;100064.94;;;38.00;39.84
9415;BME280;4746;35.664;139.738;2023-07-31T02:26:54;100067.13;;;38.05;39.12
9415;BME280;4746;35.664;139.738;2023-07-31T02:29:21;100066.97;;;38.06;39.08
9415;BME280;4746;35.664;139.738;2023-07-31T02:31:49;100060.28;;;38.02;39.07
9415;BME280;4746;35.664;139.738;2023-07-31T02:34:16;100055.44;;;38.06;39.58
9415;BME280;4746;35.664;139.738;2023-07-31T02:36:44;100058.09;;;38.06;39.36
9415;BME280;4746;35.664;139.738;2023-07-31T02:39:11;100051.06;;;38.13;39.32
9415;BME280;4746;35.664;139.738;2023-07-31T02:41:39;100052.59;;;38.23;39.37
9415;BME280;4746;35.664;139.738;2023-07-31T02:44:06;100060.97;;;38.36;39.06
9415;BME280;4746;35.664;139.738;2023-07-31T02:46:34;100072.34;;;38.54;39.04
9415;BME280;4746;35.664;139.738;2023-07-31T02:49:01;100069.34;;;38.57;38.70
9415;BME280;4746;35.664;139.738;2023-07-31T02:51:29;100048.06;;;38.63;38.55
9415;BME280;4746;35.664;139.738;2023-07-31T02:53:56;100032.63;;;38.81;38.30
9415;BME280;4746;35.664;139.738;2023-07-31T02:56:24;100045.13;;;38.97;37.89
9415;BME280;4746;35.664;139.738;2023-07-31T02:58:51;100049.47;;;39.13;37.06
9415;BME280;4746;35.664;139.738;2023-07-31T03:01:19;100050.25;;;39.22;37.10
9415;BME280;4746;35.664;139.738;2023-07-31T03:03:46;100048.44;;;39.14;37.42
9415;BME280;4746;35.664;139.738;2023-07-31T03:06:17;100027.00;;;39.14;37.39
9415;BME280;4746;35.664;139.738;2023-07-31T03:08:45;100032.19;;;39.16;37.59
9415;BME280;4746;35.664;139.738;2023-07-31T03:11:12;100042.03;;;39.23;37.45
9415;BME280;4746;35.664;139.738;2023-07-31T03:13:40;100045.69;;;39.30;37.26
9415;BME280;4746;35.664;139.738;2023-07-31T03:16:07;100037.75;;;39.37;36.65
9415;BME280;4746;35.664;139.738;2023-07-31T03:18:35;100032.59;;;39.35;36.77
9415;BME280;4746;35.664;139.738;2023-07-31T03:21:02;100053.06;;;39.28;36.85
9415;BME280;4746;35.664;139.738;2023-07-31T03:23:30;100038.66;;;39.29;36.84
9415;BME280;4746;35.664;139.738;2023-07-31T03:26:07;100054.31;;;39.56;36.28
9415;BME280;4746;35.664;139.738;2023-07-31T03:28:34;100038.13;;;39.64;35.97
9415;BME280;4746;35.664;139.738;2023-07-31T03:31:02;100043.03;;;39.91;35.82
9415;BME280;4746;35.664;139.738;2023-07-31T03:33:42;100042.19;;;40.13;35.62
9415;BME280;4746;35.664;139.738;2023-07-31T03:36:09;100043.38;;;40.33;34.85
9415;BME280;4746;35.664;139.738;2023-07-31T03:38:37;100020.41;;;40.59;34.63
9415;BME280;4746;35.664;139.738;2023-07-31T03:41:04;100028.38;;;40.89;34.17
9415;BME280;4746;35.664;139.738;2023-07-31T03:43:33;100029.56;;;41.01;34.06
9415;BME280;4746;35.664;139.738;2023-07-31T03:46:01;100027.97;;;41.21;33.90
9415;BME280;4746;35.664;139.738;2023-07-31T03:48:29;100026.09;;;41.50;33.24
9415;BME280;4746;35.664;139.738;2023-07-31T03:50:57;100013.88;;;41.69;32.68
9415;BME280;4746;35.664;139.738;2023-07-31T03:53:25;100007.09;;;41.94;32.42
9415;BME280;4746;35.664;139.738;2023-07-31T03:55:53;99999.75;;;42.08;32.38
9415;BME280;4746;35.664;139.738;2023-07-31T03:58:20;100012.41;;;42.29;32.06
9415;BME280;4746;35.664;139.738;2023-07-31T04:00:48;99992.94;;;42.33;31.94
9415;BME280;4746;35.664;139.738;2023-07-31T04:03:15;100008.97;;;42.20;31.43
9415;BME280;4746;35.664;139.738;2023-07-31T04:05:43;100001.75;;;42.21;31.83
9415;BME280;4746;35.664;139.738;2023-07-31T04:08:10;100000.72;;;42.22;31.37
9415;BME280;4746;35.664;139.738;2023-07-31T04:10:38;99995.13;;;42.23;31.36
9415;BME280;4746;35.664;139.738;2023-07-31T04:13:06;99994.03;;;42.39;31.27
9415;BME280;4746;35.664;139.738;2023-07-31T04:15:34;99986.78;;;42.39;31.07
9415;BME280;4746;35.664;139.738;2023-07-31T04:18:01;99982.94;;;42.27;30.69
9415;BME280;4746;35.664;139.738;2023-07-31T04:20:29;99983.25;;;42.18;31.19
9415;BME280;4746;35.664;139.738;2023-07-31T04:22:56;99998.16;;;42.14;31.08
9415;BME280;4746;35.664;139.738;2023-07-31T04:25:24;99999.16;;;42.06;31.62
9415;BME280;4746;35.664;139.738;2023-07-31T04:27:51;99993.56;;;42.08;31.26
9415;BME280;4746;35.664;139.738;2023-07-31T04:30:19;100023.47;;;41.92;31.38
9415;BME280;4746;35.664;139.738;2023-07-31T04:32:46;100020.66;;;41.86;30.82
9415;BME280;4746;35.664;139.738;2023-07-31T04:35:14;99996.38;;;41.79;31.17
9415;BME280;4746;35.664;139.738;2023-07-31T04:37:41;99999.50;;;41.83;30.99
9415;BME280;4746;35.664;139.738;2023-07-31T04:40:09;99998.72;;;41.68;31.09
9415;BME280;4746;35.664;139.738;2023-07-31T04:42:37;100001.03;;;41.50;30.91
9415;BME280;4746;35.664;139.738;2023-07-31T04:45:05;99985.34;;;41.39;31.46
9415;BME280;4746;35.664;139.738;2023-07-31T04:47:33;99966.03;;;41.50;31.04
9415;BME280;4746;35.664;139.738;2023-07-31T04:50:00;99974.25;;;41.84;31.00
9415;BME280;4746;35.664;139.738;2023-07-31T04:52:28;99966.94;;;41.98;30.25
9415;BME280;4746;35.664;139.738;2023-07-31T04:54:55;99956.31;;;42.18;29.64
9415;BME280;4746;35.664;139.738;2023-07-31T04:57:23;99953.44;;;42.47;29.58
9415;BME280;4746;35.664;139.738;2023-07-31T04:59:50;99955.41;;;42.66;29.06
9415;BME280;4746;35.664;139.738;2023-07-31T05:02:18;99945.97;;;42.76;29.05
9415;BME280;4746;35.664;139.738;2023-07-31T05:04:45;99941.38;;;42.70;29.58
9415;BME280;4746;35.664;139.738;2023-07-31T05:07:13;99946.53;;;42.38;29.41
9415;BME280;4746;35.664;139.738;2023-07-31T05:09:40;99928.09;;;42.14;29.69
9415;BME280;4746;35.664;139.738;2023-07-31T05:12:08;99927.00;;;42.29;30.29
9415;BME280;4746;35.664;139.738;2023-07-31T05:14:35;99913.75;;;42.34;30.41
9415;BME280;4746;35.664;139.738;2023-07-31T05:17:03;99929.16;;;42.47;30.45
9415;BME280;4746;35.664;139.738;2023-07-31T05:19:31;99920.09;;;42.54;30.17
9415;BME280;4746;35.664;139.738;2023-07-31T05:21:58;99911.75;;;42.49;30.24
9415;BME280;4746;35.664;139.738;2023-07-31T05:24:26;99911.22;;;42.60;30.76
9415;BME280;4746;35.664;139.738;2023-07-31T05:26:53;99903.03;;;42.87;31.56
9415;BME280;4746;35.664;139.738;2023-07-31T05:29:21;99891.72;;;43.11;30.62
9415;BME280;4746;35.664;139.738;2023-07-31T05:31:48;99891.38;;;43.40;30.55
9415;BME280;4746;35.664;139.738;2023-07-31T05:34:16;99896.84;;;43.66;30.16
9415;BME280;4746;35.664;139.738;2023-07-31T05:36:44;99896.44;;;43.95;29.27
9415;BME280;4746;35.664;139.738;2023-07-31T05:39:11;99904.34;;;44.03;30.04
9415;BME280;4746;35.664;139.738;2023-07-31T05:41:39;99906.75;;;44.43;29.31
9415;BME280;4746;35.664;139.738;2023-07-31T05:44:06;99919.03;;;45.08;28.58
9415;BME280;4746;35.664;139.738;2023-07-31T05:46:34;99922.38;;;45.48;27.49
9415;BME280;4746;35.664;139.738;2023-07-31T05:49:01;99922.38;;;45.78;27.10
9415;BME280;4746;35.664;139.738;2023-07-31T05:51:29;99924.56;;;45.88;26.86
9415;BME280;4746;35.664;139.738;2023-07-31T05:53:57;99914.63;;;45.82;26.68
9415;BME280;4746;35.664;139.738;2023-07-31T05:56:24;99916.13;;;45.78;27.49
9415;BME280;4746;35.664;139.738;2023-07-31T05:58:53;99920.38;;;45.92;26.96
9415;BME280;4746;35.664;139.738;2023-07-31T06:01:21;99896.63;;;46.12;27.26
9415;BME280;4746;35.664;139.738;2023-07-31T06:03:48;99897.19;;;45.96;26.74
9415;BME280;4746;35.664;139.738;2023-07-31T06:06:16;99904.22;;;45.48;27.83
9415;BME280;4746;35.664;139.738;2023-07-31T06:08:43;99896.00;;;45.37;27.23
9415;BME280;4746;35.664;139.738;2023-07-31T06:11:12;99917.94;;;45.53;27.20
9415;BME280;4746;35.664;139.738;2023-07-31T06:13:40;99912.72;;;45.21;27.04
9415;BME280;4746;35.664;139.738;2023-07-31T06:16:08;99902.88;;;44.83;28.14
9415;BME280;4746;35.664;139.738;2023-07-31T06:18:35;99900.00;;;44.78;28.49
9415;BME280;4746;35.664;139.738;2023-07-31T06:21:03;99911.66;;;45.28;28.04
9415;BME280;4746;35.664;139.738;2023-07-31T06:23:30;99902.97;;;46.84;26.38
9415;BME280;4746;35.664;139.738;2023-07-31T06:25:59;99902.03;;;48.46;24.32
9415;BME280;4746;35.664;139.738;2023-07-31T06:28:31;99892.66;;;49.32;23.79
9415;BME280;4746;35.664;139.738;2023-07-31T06:30:59;99901.25;;;49.40;23.60
9415;BME280;4746;35.664;139.738;2023-07-31T06:33:28;99896.41;;;49.15;23.66
9415;BME280;4746;35.664;139.738;2023-07-31T06:35:55;99891.28;;;48.28;24.70
9415;BME280;4746;35.664;139.738;2023-07-31T06:38:25;99893.25;;;48.67;24.65
9415;BME280;4746;35.664;139.738;2023-07-31T06:40:53;99892.56;;;50.20;22.78
9415;BME280;4746;35.664;139.738;2023-07-31T06:43:20;99888.44;;;51.82;21.58
9415;BME280;4746;35.664;139.738;2023-07-31T06:45:48;99892.69;;;53.07;20.90
9415;BME280;4746;35.664;139.738;2023-07-31T06:48:18;99886.06;;;53.03;20.23
9415;BME280;4746;35.664;139.738;2023-07-31T06:50:45;99895.16;;;53.09;20.35
9415;BME280;4746;35.664;139.738;2023-07-31T06:53:13;99888.03;;;53.27;20.24
9415;BME280;4746;35.664;139.738;2023-07-31T06:55:40;99879.59;;;53.59;19.67
9415;BME280;4746;35.664;139.738;2023-07-31T06:58:08;99892.22;;;53.85;20.16
9415;BME280;4746;35.664;139.738;2023-07-31T07:00:35;99898.72;;;53.04;20.08
9415;BME280;4746;35.664;139.738;2023-07-31T07:03:03;99887.53;;;51.72;21.91
9415;BME280;4746;35.664;139.738;2023-07-31T07:05:30;99898.34;;;50.24;23.09
9415;BME280;4746;35.664;139.738;2023-07-31T07:07:58;99890.38;;;48.73;24.18
9415;BME280;4746;35.664;139.738;2023-07-31T07:10:25;99899.75;;;47.34;26.51
9415;BME280;4746;35.664;139.738;2023-07-31T07:12:54;99900.28;;;46.24;28.00
9415;BME280;4746;35.664;139.738;2023-07-31T07:15:22;99906.84;;;45.37;29.17
9415;BME280;4746;35.664;139.738;2023-07-31T07:17:49;99907.13;;;44.66;30.02
9415;BME280;4746;35.664;139.738;2023-07-31T07:20:17;99899.94;;;44.27;30.72
9415;BME280;4746;35.664;139.738;2023-07-31T07:22:46;99908.81;;;44.54;30.28
9415;BME280;4746;35.664;139.738;2023-07-31T07:25:14;99898.84;;;44.61;30.36
9415;BME280;4746;35.664;139.738;2023-07-31T07:27:41;99909.88;;;44.53;30.49
9415;BME280;4746;35.664;139.738;2023-07-31T07:30:09;99916.97;;;44.41;29.80
9415;BME280;4746;35.664;139.738;2023-07-31T07:32:37;99910.94;;;44.39;29.95
9415;BME280;4746;35.664;139.738;2023-07-31T07:35:05;99898.06;;;44.41;29.48
9415;BME280;4746;35.664;139.738;2023-07-31T07:37:33;99899.31;;;44.13;29.64
9415;BME280;4746;35.664;139.738;2023-07-31T07:40:00;99881.44;;;43.66;30.55
9415;BME280;4746;35.664;139.738;2023-07-31T07:42:28;99885.97;;;43.40;30.99
9415;BME280;4746;35.664;139.738;2023-07-31T07:44:56;99894.00;;;43.08;31.56
9415;BME280;4746;35.664;139.738;2023-07-31T07:47:23;99911.16;;;42.54;32.10
9415;BME280;4746;35.664;139.738;2023-07-31T07:49:51;99884.06;;;41.80;32.78
9415;BME280;4746;35.664;139.738;2023-07-31T07:52:18;99884.75;;;41.19;33.82
9415;BME280;4746;35.664;139.738;2023-07-31T07:54:46;99864.50;;;40.73;35.23
9415;BME280;4746;35.664;139.738;2023-07-31T07:57:13;99887.97;;;40.50;35.36
9415;BME280;4746;35.664;139.738;2023-07-31T07:59:41;99884.06;;;40.24;35.70
9415;BME280;4746;35.664;139.738;2023-07-31T08:02:09;99898.59;;;40.01;36.57
9415;BME280;4746;35.664;139.738;2023-07-31T08:04:37;99890.56;;;40.15;36.59
9415;BME280;4746;35.664;139.738;2023-07-31T08:07:04;99895.50;;;40.41;36.26
9415;BME280;4746;35.664;139.738;2023-07-31T08:09:32;99898.09;;;40.48;36.25
9415;BME280;4746;35.664;139.738;2023-07-31T08:11:59;99908.09;;;40.54;36.50
9415;BME280;4746;35.664;139.738;2023-07-31T08:14:30;99914.38;;;40.33;36.53
9415;BME280;4746;35.664;139.738;2023-07-31T08:16:57;99914.72;;;40.01;36.98
9415;BME280;4746;35.664;139.738;2023-07-31T08:19:25;99913.94;;;40.29;36.22
9415;BME280;4746;35.664;139.738;2023-07-31T08:21:52;99903.50;;;39.97;37.37
9415;BME280;4746;35.664;139.738;2023-07-31T08:24:20;99914.47;;;39.66;37.73
9415;BME280;4746;35.664;139.738;2023-07-31T08:26:48;99904.25;;;39.47;37.92
9415;BME280;4746;35.664;139.738;2023-07-31T08:29:15;99898.81;;;39.32;38.96
9415;BME280;4746;35.664;139.738;2023-07-31T08:31:42;99906.00;;;39.32;38.83
9415;BME280;4746;35.664;139.738;2023-07-31T08:34:10;99903.75;;;39.88;37.90
9415;BME280;4746;35.664;139.738;2023-07-31T08:36:37;99893.47;;;39.91;38.11
9415;BME280;4746;35.664;139.738;2023-07-31T08:39:05;99894.31;;;39.92;37.57
9415;BME280;4746;35.664;139.738;2023-07-31T08:41:38;99897.59;;;40.02;37.48
9415;BME280;4746;35.664;139.738;2023-07-31T08:44:10;99895.25;;;39.99;38.30
9415;BME280;4746;35.664;139.738;2023-07-31T08:46:40;99888.09;;;40.71;37.14
9415;BME280;4746;35.664;139.738;2023-07-31T08:49:09;99892.31;;;41.51;35.78
9415;BME280;4746;35.664;139.738;2023-07-31T08:51:38;99915.34;;;41.39;35.99
9415;BME280;4746;35.664;139.738;2023-07-31T08:54:07;99906.91;;;40.71;36.19
9415;BME280;4746;35.664;139.738;2023-07-31T08:56:36;99908.59;;;40.07;38.02
9415;BME280;4746;35.664;139.738;2023-07-31T08:59:05;99914.16;;;39.46;38.58
9415;BME280;4746;35.664;139.738;2023-07-31T09:01:43;99903.00;;;39.04;39.57
9415;BME280;4746;35.664;139.738;2023-07-31T09:04:13;99910.03;;;38.67;40.57
9415;BME280;4746;35.664;139.738;2023-07-31T09:06:42;99906.28;;;38.38;40.80
9415;BME280;4746;35.664;139.738;2023-07-31T09:09:12;99912.16;;;38.02;41.37
9415;BME280;4746;35.664;139.738;2023-07-31T09:11:40;99900.97;;;37.66;41.79
9415;BME280;4746;35.664;139.738;2023-07-31T09:14:10;99898.31;;;37.51;42.23
9415;BME280;4746;35.664;139.738;2023-07-31T09:16:54;99913.34;;;37.44;42.71
9415;BME280;4746;35.664;139.738;2023-07-31T09:19:35;99905.09;;;37.21;42.95
9415;BME280;4746;35.664;139.738;2023-07-31T09:22:09;99912.34;;;36.87;43.68
9415;BME280;4746;35.664;139.738;2023-07-31T09:24:36;99913.75;;;36.66;44.15
9415;BME280;4746;35.664;139.738;2023-07-31T09:27:05;99920.69;;;36.51;44.45
9415;BME280;4746;35.664;139.738;2023-07-31T09:29:33;99907.84;;;36.29;44.97
9415;BME280;4746;35.664;139.738;2023-07-31T09:32:00;99896.41;;;36.11;45.05
9415;BME280;4746;35.664;139.738;2023-07-31T09:34:38;99904.66;;;36.01;45.14
9415;BME280;4746;35.664;139.738;2023-07-31T09:37:06;99918.50;;;35.79;46.48
9415;BME280;4746;35.664;139.738;2023-07-31T09:39:49;99934.91;;;35.66;46.65
9415;BME280;4746;35.664;139.738;2023-07-31T09:42:27;99944.97;;;35.55;47.00
9415;BME280;4746;35.664;139.738;2023-07-31T09:45:08;99940.81;;;35.43;46.73
9415;BME280;4746;35.664;139.738;2023-07-31T09:47:36;99939.84;;;35.27;47.51
9415;BME280;4746;35.664;139.738;2023-07-31T09:50:08;99919.25;;;35.19;48.30
9415;BME280;4746;35.664;139.738;2023-07-31T09:52:39;99929.53;;;35.14;48.16
9415;BME280;4746;35.664;139.738;2023-07-31T09:55:07;99935.44;;;35.08;48.46
9415;BME280;4746;35.664;139.738;2023-07-31T09:57:55;99946.44;;;35.05;48.79
9415;BME280;4746;35.664;139.738;2023-07-31T10:00:24;99954.72;;;34.93;49.21
9415;BME280;4746;35.664;139.738;2023-07-31T10:02:59;99945.91;;;34.92;49.08
9415;BME280;4746;35.664;139.738;2023-07-31T10:05:50;99947.88;;;34.90;48.60
9415;BME280;4746;35.664;139.738;2023-07-31T10:08:27;99954.47;;;34.86;49.15
9415;BME280;4746;35.664;139.738;2023-07-31T10:11:02;99964.59;;;34.83;49.34
9415;BME280;4746;35.664;139.738;2023-07-31T10:13:32;99963.34;;;34.77;49.65
9415;BME280;4746;35.664;139.738;2023-07-31T10:16:01;99960.59;;;34.69;49.32
9415;BME280;4746;35.664;139.738;2023-07-31T10:18:32;99971.44;;;34.59;50.04
9415;BME280;4746;35.664;139.738;2023-07-31T10:20:59;99977.19;;;34.54;49.82
9415;BME280;4746;35.664;139.738;2023-07-31T10:23:28;100017.53;;;34.50;49.59
9415;BME280;4746;35.664;139.738;2023-07-31T10:25:59;100049.63;;;34.39;49.23
9415;BME280;4746;35.664;139.738;2023-07-31T10:28:29;100033.84;;;34.28;49.03
9415;BME280;4746;35.664;139.738;2023-07-31T10:31:02;100024.03;;;34.19;49.92
9415;BME280;4746;35.664;139.738;2023-07-31T10:33:30;100031.91;;;34.11;49.90
9415;BME280;4746;35.664;139.738;2023-07-31T10:36:18;100058.22;;;34.14;49.71
9415;BME280;4746;35.664;139.738;2023-07-31T10:38:49;100011.41;;;34.02;50.79
9415;BME280;4746;35.664;139.738;2023-07-31T10:41:17;100041.13;;;33.97;51.00
9415;BME280;4746;35.664;139.738;2023-07-31T10:43:47;100029.63;;;33.97;50.87
9415;BME280;4746;35.664;139.738;2023-07-31T10:46:15;100047.81;;;33.92;51.69
9415;BME280;4746;35.664;139.738;2023-07-31T10:48:42;100038.16;;;33.91;51.44
9415;BME280;4746;35.664;139.738;2023-07-31T10:51:13;100006.25;;;33.91;51.77
9415;BME280;4746;35.664;139.738;2023-07-31T10:53:41;100017.59;;;33.93;51.94
9415;BME280;4746;35.664;139.738;2023-07-31T10:56:10;100021.22;;;33.92;51.88
9415;BME280;4746;35.664;139.738;2023-07-31T10:58:45;100043.78;;;33.88;52.28
9415;BME280;4746;35.664;139.738;2023-07-31T11:01:13;100034.09;;;33.87;51.97
9415;BME280;4746;35.664;139.738;2023-07-31T11:03:51;100044.44;;;33.90;51.83
9415;BME280;4746;35.664;139.738;2023-07-31T11:06:19;100042.34;;;33.84;52.64
9415;BME280;4746;35.664;139.738;2023-07-31T11:08:49;100035.50;;;33.82;52.63
9415;BME280;4746;35.664;139.738;2023-07-31T11:11:20;100000.25;;;33.80;52.65
9415;BME280;4746;35.664;139.738;2023-07-31T11:13:52;100010.03;;;33.79;52.99
9415;BME280;4746;35.664;139.738;2023-07-31T11:16:23;100018.56;;;33.83;52.78
9415;BME280;4746;35.664;139.738;2023-07-31T11:18:52;100022.63;;;33.87;53.34
9415;BME280;4746;35.664;139.738;2023-07-31T11:21:23;100026.84;;;33.89;52.91
9415;BME280;4746;35.664;139.738;2023-07-31T11:23:56;100035.22;;;33.94;53.76
9415;BME280;4746;35.664;139.738;2023-07-31T11:26:24;100026.94;;;33.88;53.30
9415;BME280;4746;35.664;139.738;2023-07-31T11:28:52;100053.00;;;33.84;53.95
9415;BME280;4746;35.664;139.738;2023-07-31T11:31:20;100037.59;;;33.78;53.13
9415;BME280;4746;35.664;139.738;2023-07-31T11:33:48;100057.47;;;33.74;54.25
9415;BME280;4746;35.664;139.738;2023-07-31T11:36:20;100069.50;;;33.78;53.56
9415;BME280;4746;35.664;139.738;2023-07-31T11:38:48;100037.47;;;33.70;54.40
9415;BME280;4746;35.664;139.738;2023-07-31T11:41:17;100048.09;;;33.70;54.20
9415;BME280;4746;35.664;139.738;2023-07-31T11:43:46;100051.72;;;33.69;54.51
9415;BME280;4746;35.664;139.738;2023-07-31T11:46:15;100041.34;;;33.66;54.79
9415;BME280;4746;35.664;139.738;2023-07-31T11:48:42;100046.56;;;33.68;55.00
9415;BME280;4746;35.664;139.738;2023-07-31T11:51:12;100038.13;;;33.72;54.78
9415;BME280;4746;35.664;139.738;2023-07-31T11:53:54;100032.97;;;33.80;54.45
9415;BME280;4746;35.664;139.738;2023-07-31T11:56:24;100042.91;;;33.78;54.89
9415;BME280;4746;35.664;139.738;2023-07-31T11:58:59;100058.03;;;33.78;54.51
9415;BME280;4746;35.664;139.738;2023-07-31T12:01:30;100041.09;;;33.69;54.80
9415;BME280;4746;35.664;139.738;2023-07-31T12:03:59;100061.94;;;33.64;55.38
9415;BME280;4746;35.664;139.738;2023-07-31T12:06:36;100057.31;;;33.66;55.00
9415;BME280;4746;35.664;139.738;2023-07-31T12:09:05;100062.63;;;33.57;55.09
9415;BME280;4746;35.664;139.738;2023-07-31T12:11:47;100087.09;;;33.60;55.17
9415;BME280;4746;35.664;139.738;2023-07-31T12:14:27;100065.16;;;33.58;54.69
9415;BME280;4746;35.664;139.738;2023-07-31T12:17:05;100083.03;;;33.56;54.86
9415;BME280;4746;35.664;139.738;2023-07-31T12:19:34;100083.56;;;33.50;55.48
9415;BME280;4746;35.664;139.738;2023-07-31T12:22:02;100078.38;;;33.49;55.28
9415;BME280;4746;35.664;139.738;2023-07-31T12:24:39;100080.22;;;33.48;55.28
9415;BME280;4746;35.664;139.738;2023-07-31T12:27:15;100063.97;;;33.51;54.71
9415;BME280;4746;35.664;139.738;2023-07-31T12:29:45;100065.34;;;33.46;55.36
9415;BME280;4746;35.664;139.738;2023-07-31T12:32:25;100053.34;;;33.51;54.85
9415;BME280;4746;35.664;139.738;2023-07-31T12:34:58;100057.84;;;33.51;54.99
9415;BME280;4746;35.664;139.738;2023-07-31T12:37:26;100044.41;;;33.52;54.69
9415;BME280;4746;35.664;139.738;2023-07-31T12:39:54;100055.03;;;33.52;54.62
9415;BME280;4746;35.664;139.738;2023-07-31T12:42:24;100060.09;;;33.55;54.94
9415;BME280;4746;35.664;139.738;2023-07-31T12:44:51;100072.41;;;33.56;54.32
9415;BME280;4746;35.664;139.738;2023-07-31T12:47:20;100073.28;;;33.57;54.58
9415;BME280;4746;35.664;139.738;2023-07-31T12:49:49;100058.97;;;33.58;54.54
9415;BME280;4746;35.664;139.738;2023-07-31T12:52:16;100063.88;;;33.62;53.90
9415;BME280;4746;35.664;139.738;2023-07-31T12:54:44;100068.94;;;33.65;53.78
9415;BME280;4746;35.664;139.738;2023-07-31T12:57:13;100070.59;;;33.66;53.62
9415;BME280;4746;35.664;139.738;2023-07-31T12:59:41;100076.94;;;33.65;53.64
9415;BME280;4746;35.664;139.738;2023-07-31T13:02:08;100069.06;;;33.64;53.89
9415;BME280;4746;35.664;139.738;2023-07-31T13:04:36;100065.97;;;33.59;53.60
9415;BME280;4746;35.664;139.738;2023-07-31T13:07:03;100074.38;;;33.64;53.92
9415;BME280;4746;35.664;139.738;2023-07-31T13:09:31;100065.16;;;33.68;54.03
9415;BME280;4746;35.664;139.738;2023-07-31T13:11:59;100067.41;;;33.72;53.68